Time;durP1;ratioP1;P1;durP2;ratioP2;P2;SDS_P1;SDS_P2;PMS_P1;PMS_P2;Temp;Humidity;BMP_temperature;BMP_pressure;BME280_temperature;BME280_humidity;BME280_pressure;Samples;Min_cycle;Max_cycle;Signal;HPM_P1;HPM_P2
2021/11/05 00:00:53;;;;;;;8.57;4.10;;;7.80;99.30;;;;;;5014739;28;20084;-77
2021/11/05 00:03:19;;;;;;;7.85;4.25;;;7.80;99.30;;;;;;5014805;28;20029;-77
2021/11/05 00:05:44;;;;;;;5.45;3.60;;;7.90;99.30;;;;;;5013864;28;20076;-77
2021/11/05 00:08:10;;;;;;;6.50;3.70;;;7.90;99.30;;;;;;5013555;28;20458;-77
2021/11/05 00:10:42;;;;;;;5.68;3.25;;;7.90;99.30;;;;;;5013519;28;20056;-78
2021/11/05 00:13:08;;;;;;;7.47;4.50;;;7.90;99.20;;;;;;5015230;28;20498;-78
2021/11/05 00:15:35;;;;;;;6.70;4.05;;;7.80;99.20;;;;;;5014166;28;20024;-78
2021/11/05 00:18:00;;;;;;;6.63;3.35;;;7.80;99.20;;;;;;5013497;28;20105;-77
2021/11/05 00:20:27;;;;;;;5.68;3.20;;;7.80;99.20;;;;;;5013834;28;20054;-78
2021/11/05 00:22:53;;;;;;;5.82;3.33;;;7.80;99.20;;;;;;5014335;28;20038;-78
2021/11/05 00:25:19;;;;;;;6.65;3.40;;;7.80;99.20;;;;;;5013357;28;20026;-76
2021/11/05 00:27:45;;;;;;;6.15;3.65;;;7.80;99.20;;;;;;5013359;28;20072;-76
2021/11/05 00:30:12;;;;;;;6.22;3.50;;;7.80;99.20;;;;;;5013471;28;20026;-76
2021/11/05 00:32:39;;;;;;;5.90;3.28;;;7.80;99.20;;;;;;5013123;28;20052;-76
2021/11/05 00:35:06;;;;;;;6.40;3.13;;;7.80;99.20;;;;;;5013517;28;20026;-76
2021/11/05 00:37:32;;;;;;;7.15;3.10;;;7.80;99.20;;;;;;5014339;28;20030;-76
2021/11/05 00:39:57;;;;;;;6.78;3.22;;;7.80;99.20;;;;;;5013219;28;20121;-76
2021/11/05 00:42:23;;;;;;;6.53;3.08;;;7.80;99.20;;;;;;5013079;28;20465;-76
2021/11/05 00:44:49;;;;;;;5.63;2.75;;;7.80;99.20;;;;;;5013642;28;20434;-76
2021/11/05 00:47:15;;;;;;;4.50;2.78;;;7.80;99.20;;;;;;5012846;28;20454;-75
2021/11/05 00:49:44;;;;;;;4.93;2.90;;;7.80;99.20;;;;;;5012809;28;20061;-76
2021/11/05 00:52:10;;;;;;;6.78;2.88;;;7.80;99.20;;;;;;5012845;28;20026;-76
2021/11/05 00:54:36;;;;;;;6.00;2.58;;;7.80;99.20;;;;;;5012865;28;20053;-77
2021/11/05 00:57:02;;;;;;;4.78;2.60;;;7.80;99.20;;;;;;5014028;28;20101;-75
2021/11/05 00:59:28;;;;;;;4.43;2.42;;;7.80;99.20;;;;;;5014032;28;20095;-76
2021/11/05 01:01:54;;;;;;;4.03;2.40;;;7.80;99.20;;;;;;5014341;28;20061;-76
2021/11/05 01:04:20;;;;;;;3.95;2.28;;;7.90;99.20;;;;;;5013596;28;20068;-76
2021/11/05 01:06:45;;;;;;;5.10;2.75;;;7.80;99.20;;;;;;5012535;28;20104;-76
2021/11/05 01:09:11;;;;;;;4.63;2.63;;;7.80;99.20;;;;;;5013250;28;20022;-76
2021/11/05 01:11:37;;;;;;;3.45;2.10;;;7.90;99.20;;;;;;5012497;28;20029;-76
2021/11/05 01:14:03;;;;;;;5.30;2.28;;;7.90;99.30;;;;;;5012591;28;20109;-76
2021/11/05 01:16:29;;;;;;;6.32;2.70;;;7.80;99.20;;;;;;5012454;28;20060;-75
2021/11/05 01:18:55;;;;;;;4.45;2.30;;;7.80;99.20;;;;;;5012670;28;20022;-76
2021/11/05 01:21:21;;;;;;;3.65;2.40;;;7.80;99.20;;;;;;5012509;28;20451;-76
2021/11/05 01:23:46;;;;;;;4.85;2.47;;;7.80;99.20;;;;;;5012865;28;20014;-76
2021/11/05 01:26:12;;;;;;;4.63;2.58;;;7.80;99.20;;;;;;5012440;28;20100;-75
2021/11/05 01:28:38;;;;;;;3.55;2.20;;;7.80;99.20;;;;;;5012379;28;20109;-76
2021/11/05 01:31:04;;;;;;;3.65;2.25;;;7.80;99.20;;;;;;5013958;28;20116;-75
2021/11/05 01:33:30;;;;;;;3.33;2.10;;;7.80;99.20;;;;;;5013382;28;20112;-76
2021/11/05 01:35:56;;;;;;;3.97;2.13;;;7.70;99.20;;;;;;5012095;28;20026;-75
2021/11/05 01:38:21;;;;;;;3.92;2.10;;;7.70;99.20;;;;;;5013427;28;20109;-76
2021/11/05 01:40:47;;;;;;;5.35;3.00;;;7.70;99.20;;;;;;5012721;28;20030;-76
2021/11/05 01:43:14;;;;;;;3.05;2.35;;;7.70;99.20;;;;;;5013349;28;20030;-76
2021/11/05 01:45:41;;;;;;;4.10;2.25;;;7.70;99.20;;;;;;5011908;28;20030;-76
2021/11/05 01:48:07;;;;;;;4.50;2.72;;;7.70;99.20;;;;;;5013316;28;20104;-76
2021/11/05 01:50:33;;;;;;;4.10;2.53;;;7.60;99.20;;;;;;5013272;28;20041;-76
2021/11/05 01:53:00;;;;;;;4.78;2.40;;;7.60;99.20;;;;;;5013643;28;20092;-76
2021/11/05 01:55:26;;;;;;;4.32;2.58;;;7.60;99.20;;;;;;5012905;28;20029;-76
2021/11/05 01:57:52;;;;;;;4.32;2.33;;;7.60;99.20;;;;;;5011872;28;20482;-76
2021/11/05 02:00:22;;;;;;;4.55;2.42;;;7.60;99.20;;;;;;5011886;28;20109;-76
2021/11/05 02:02:50;;;;;;;4.20;2.10;;;7.60;99.20;;;;;;5011923;28;20041;-76
2021/11/05 02:05:15;;;;;;;4.47;2.28;;;7.60;99.20;;;;;;5012068;28;20364;-76
2021/11/05 02:07:47;;;;;;;3.45;2.10;;;7.60;99.20;;;;;;5011768;28;20462;-78
2021/11/05 02:10:14;;;;;;;5.32;2.40;;;7.60;99.30;;;;;;5012003;28;20484;-77
2021/11/05 02:12:40;;;;;;;5.13;2.60;;;7.60;99.30;;;;;;5013494;28;20029;-78
2021/11/05 02:15:07;;;;;;;3.00;1.92;;;7.60;99.30;;;;;;5012050;28;20597;-76
2021/11/05 02:17:35;;;;;;;4.32;2.10;;;7.70;99.30;;;;;;5011902;28;20064;-75
2021/11/05 02:20:04;;;;;;;4.50;2.45;;;7.70;99.30;;;;;;5011822;28;20026;-76
2021/11/05 02:22:30;;;;;;;4.93;2.70;;;7.60;99.30;;;;;;5012951;28;20026;-76
2021/11/05 02:24:56;;;;;;;6.93;2.60;;;7.60;99.30;;;;;;5013371;28;20601;-75
2021/11/05 02:27:21;;;;;;;4.50;2.17;;;7.70;99.30;;;;;;5016916;28;20054;-76
2021/11/05 02:29:47;;;;;;;4.85;2.35;;;7.70;99.30;;;;;;5015979;28;20018;-76
2021/11/05 02:32:13;;;;;;;3.45;2.10;;;7.60;99.30;;;;;;5016096;28;20041;-76
2021/11/05 02:34:39;;;;;;;3.22;1.83;;;7.60;99.30;;;;;;5016875;28;20394;-75
2021/11/05 02:37:05;;;;;;;3.60;2.22;;;7.60;99.30;;;;;;5016931;28;20069;-76
2021/11/05 02:39:33;;;;;;;4.05;2.10;;;7.60;99.30;;;;;;5015600;28;20022;-75
2021/11/05 02:41:59;;;;;;;3.55;2.13;;;7.60;99.30;;;;;;5015438;28;20025;-75
2021/11/05 02:44:25;;;;;;;3.75;2.15;;;7.70;99.30;;;;;;5015234;28;20065;-76
2021/11/05 02:46:51;;;;;;;6.38;2.22;;;7.60;99.30;;;;;;5014797;28;20398;-76
2021/11/05 02:49:17;;;;;;;5.10;2.22;;;7.60;99.30;;;;;;5016463;28;20074;-76
2021/11/05 02:51:49;;;;;;;4.70;2.05;;;7.60;99.30;;;;;;5014915;28;20504;-76
2021/11/05 02:54:15;;;;;;;5.68;2.22;;;7.60;99.30;;;;;;5016161;28;20100;-76
2021/11/05 02:56:41;;;;;;;3.30;2.00;;;7.60;99.30;;;;;;5016956;28;20061;-76
2021/11/05 02:59:07;;;;;;;3.17;1.90;;;7.70;99.30;;;;;;5016173;28;20018;-76
2021/11/05 03:01:35;;;;;;;5.25;1.85;;;7.70;99.30;;;;;;5015122;28;20088;-76
2021/11/05 03:04:05;;;;;;;2.90;1.85;;;7.60;99.30;;;;;;5016085;28;20018;-76
2021/11/05 03:06:35;;;;;;;3.05;1.80;;;7.60;99.30;;;;;;5015862;28;20025;-75
2021/11/05 03:09:06;;;;;;;2.88;1.55;;;7.60;99.30;;;;;;5014978;28;20061;-76
2021/11/05 03:11:32;;;;;;;4.07;1.73;;;7.60;99.30;;;;;;5015781;28;20065;-75
2021/11/05 03:13:58;;;;;;;2.15;1.45;;;7.70;99.30;;;;;;5014786;28;20080;-76
2021/11/05 03:16:24;;;;;;;1.60;1.23;;;7.60;99.30;;;;;;5015467;28;20450;-76
2021/11/05 03:18:49;;;;;;;2.92;1.50;;;7.60;99.30;;;;;;5015880;28;20026;-75
2021/11/05 03:21:15;;;;;;;1.58;1.30;;;7.70;99.30;;;;;;5015883;28;20374;-76
2021/11/05 03:23:41;;;;;;;3.28;1.38;;;7.60;99.30;;;;;;5014453;28;20038;-77
2021/11/05 03:26:06;;;;;;;2.70;1.35;;;7.70;99.30;;;;;;5013983;28;20018;-77
2021/11/05 03:28:32;;;;;;;2.88;1.17;;;7.70;99.30;;;;;;5014209;28;20049;-77
2021/11/05 03:30:58;;;;;;;3.22;1.20;;;7.70;99.30;;;;;;5015328;28;20022;-76
2021/11/05 03:33:24;;;;;;;5.80;1.50;;;7.70;99.30;;;;;;5015611;28;20056;-76
2021/11/05 03:35:50;;;;;;;2.42;1.38;;;7.70;99.30;;;;;;5015473;28;20025;-76
2021/11/05 03:38:16;;;;;;;2.15;1.50;;;7.60;99.30;;;;;;5014976;28;20026;-76
2021/11/05 03:40:41;;;;;;;1.33;0.85;;;7.70;99.40;;;;;;5016027;28;20026;-76
2021/11/05 03:43:07;;;;;;;1.80;1.00;;;7.70;99.30;;;;;;5016123;28;20095;-76
2021/11/05 03:45:34;;;;;;;1.42;1.00;;;7.70;99.30;;;;;;5015369;28;20032;-76
2021/11/05 03:47:59;;;;;;;1.38;0.90;;;7.70;99.30;;;;;;5013641;28;20033;-75
2021/11/05 03:50:25;;;;;;;2.35;1.30;;;7.70;99.30;;;;;;5014293;28;20092;-75
2021/11/05 03:52:51;;;;;;;1.65;1.20;;;7.70;99.40;;;;;;5013577;28;20030;-76
2021/11/05 03:55:16;;;;;;;2.70;1.17;;;7.70;99.40;;;;;;5015131;28;20046;-75
2021/11/05 03:57:42;;;;;;;1.98;1.23;;;7.70;99.40;;;;;;5014124;28;20117;-75
2021/11/05 04:00:10;;;;;;;2.38;1.30;;;7.70;99.40;;;;;;5014590;28;20413;-75
2021/11/05 04:02:36;;;;;;;2.35;1.52;;;7.70;99.40;;;;;;5012985;28;20030;-75
2021/11/05 04:05:03;;;;;;;2.50;1.00;;;7.70;99.40;;;;;;5013692;28;20271;-76
2021/11/05 04:07:29;;;;;;;1.63;1.00;;;7.70;99.40;;;;;;5015111;28;20021;-76
2021/11/05 04:09:54;;;;;;;2.83;1.50;;;7.70;99.40;;;;;;5013587;28;20037;-77
2021/11/05 04:12:20;;;;;;;1.90;1.30;;;7.70;99.40;;;;;;5015148;28;20366;-76
2021/11/05 04:14:46;;;;;;;3.42;1.27;;;7.70;99.40;;;;;;5013555;28;20075;-76
2021/11/05 04:17:13;;;;;;;3.72;1.65;;;7.70;99.40;;;;;;5014522;28;20439;-75
2021/11/05 04:19:40;;;;;;;3.58;1.30;;;7.70;99.30;;;;;;5014455;28;20405;-76
2021/11/05 04:22:07;;;;;;;2.13;1.30;;;7.70;99.30;;;;;;5014437;28;20080;-76
2021/11/05 04:24:32;;;;;;;2.03;1.25;;;7.70;99.30;;;;;;5014124;28;20033;-76
2021/11/05 04:26:58;;;;;;;3.42;1.60;;;7.70;99.30;;;;;;5013241;28;20026;-76
2021/11/05 04:29:24;;;;;;;2.88;1.50;;;7.70;99.40;;;;;;5014839;28;20442;-75
2021/11/05 04:31:50;;;;;;;4.97;1.65;;;7.70;99.40;;;;;;5013311;28;20045;-77
2021/11/05 04:34:15;;;;;;;3.10;1.30;;;7.60;99.40;;;;;;5013026;28;20053;-76
2021/11/05 04:36:41;;;;;;;2.63;1.65;;;7.60;99.50;;;;;;5014492;28;20022;-75
2021/11/05 04:39:10;;;;;;;2.30;1.50;;;7.60;99.60;;;;;;5015081;28;20443;-75
2021/11/05 04:41:35;;;;;;;4.85;1.42;;;7.60;99.60;;;;;;5014290;28;20022;-76
2021/11/05 04:44:01;;;;;;;2.90;1.50;;;7.60;99.50;;;;;;5013947;28;20079;-76
2021/11/05 04:46:27;;;;;;;2.63;2.38;;;7.60;99.50;;;;;;5014335;28;20018;-76
2021/11/05 04:48:52;;;;;;;5.03;1.50;;;7.60;99.50;;;;;;5014305;28;20037;-75
2021/11/05 04:51:18;;;;;;;3.58;1.30;;;7.60;99.50;;;;;;5012829;28;20427;-76
2021/11/05 04:53:44;;;;;;;2.53;1.50;;;7.60;99.50;;;;;;5013824;28;20018;-76
2021/11/05 04:56:09;;;;;;;1.75;1.17;;;7.60;99.50;;;;;;5012443;28;20030;-78
2021/11/05 04:58:35;;;;;;;2.85;1.50;;;7.50;99.50;;;;;;5013974;28;20030;-78
2021/11/05 05:01:01;;;;;;;2.58;1.50;;;7.50;99.50;;;;;;5013936;28;20055;-78
2021/11/05 05:03:27;;;;;;;5.65;1.48;;;7.50;99.50;;;;;;5013985;28;20057;-78
2021/11/05 05:05:53;;;;;;;2.58;1.70;;;7.50;99.50;;;;;;5012796;28;20536;-77
2021/11/05 05:08:18;;;;;;;4.15;1.83;;;7.50;99.50;;;;;;5014418;28;20590;-77
2021/11/05 05:10:45;;;;;;;3.05;1.52;;;7.50;99.50;;;;;;5012531;28;20111;-76
2021/11/05 05:13:10;;;;;;;2.40;1.27;;;7.50;99.40;;;;;;5012411;28;20037;-77
2021/11/05 05:15:36;;;;;;;4.68;1.48;;;7.40;99.40;;;;;;5012480;28;20018;-76
2021/11/05 05:18:02;;;;;;;5.03;2.00;;;7.40;99.50;;;;;;5013668;28;20537;-77
2021/11/05 05:20:28;;;;;;;2.60;1.50;;;7.40;99.50;;;;;;5012870;28;20025;-77
2021/11/05 05:22:53;;;;;;;2.35;1.58;;;7.40;99.50;;;;;;5012009;28;20020;-77
2021/11/05 05:25:19;;;;;;;6.50;2.97;;;7.30;99.50;;;;;;5013084;28;20053;-76
2021/11/05 05:27:46;;;;;;;2.90;1.98;;;7.30;99.50;;;;;;5012367;28;20104;-76
2021/11/05 05:30:13;;;;;;;3.55;2.00;;;7.30;99.50;;;;;;5013123;28;20036;-76
2021/11/05 05:32:42;;;;;;;3.53;2.10;;;7.30;99.60;;;;;;5011928;28;20462;-76
2021/11/05 05:35:08;;;;;;;4.68;2.72;;;7.30;99.60;;;;;;5012466;28;20124;-76
2021/11/05 05:37:34;;;;;;;5.32;2.38;;;7.30;99.60;;;;;;5012282;28;20117;-76
2021/11/05 05:39:59;;;;;;;2.92;1.90;;;7.30;99.60;;;;;;5013815;28;20384;-77
2021/11/05 05:42:25;;;;;;;4.13;2.30;;;7.30;99.60;;;;;;5013514;28;20036;-76
2021/11/05 05:44:51;;;;;;;3.83;2.17;;;7.20;99.50;;;;;;5012160;28;20021;-76
2021/11/05 05:47:16;;;;;;;4.45;2.35;;;7.20;99.50;;;;;;5013279;28;20029;-77
2021/11/05 05:49:42;;;;;;;6.88;2.70;;;7.20;99.50;;;;;;5013745;28;20029;-74
2021/11/05 05:52:08;;;;;;;5.90;3.08;;;7.20;99.80;;;;;;5011898;28;20140;-74
2021/11/05 05:54:34;;;;;;;4.95;2.63;;;7.10;99.50;;;;;;5013239;28;20026;-75
2021/11/05 05:57:00;;;;;;;3.67;2.50;;;7.10;99.50;;;;;;5013664;28;20026;-75
2021/11/05 05:59:26;;;;;;;5.38;2.72;;;7.10;99.50;;;;;;5012753;28;20100;-74
2021/11/05 06:01:52;;;;;;;5.70;2.83;;;7.10;99.50;;;;;;5018003;28;20393;-76
2021/11/05 06:04:19;;;;;;;6.45;3.20;;;7.10;99.50;;;;;;5019574;28;20458;-75
2021/11/05 06:06:45;;;;;;;8.00;2.70;;;7.10;99.50;;;;;;5019452;28;20377;-75
2021/11/05 06:09:11;;;;;;;4.85;2.78;;;7.10;99.50;;;;;;5019553;28;20026;-75
2021/11/05 06:11:36;;;;;;;5.07;2.70;;;7.10;99.40;;;;;;5019571;28;20474;-75
2021/11/05 06:14:02;;;;;;;4.90;2.58;;;7.10;99.40;;;;;;5018190;28;20034;-75
2021/11/05 06:16:28;;;;;;;8.80;3.28;;;7.10;99.40;;;;;;5019646;28;20155;-75
2021/11/05 06:18:54;;;;;;;7.18;3.28;;;7.10;99.30;;;;;;5018169;28;20061;-75
2021/11/05 06:21:24;;;;;;;7.72;3.03;;;7.10;99.30;;;;;;5019639;28;20029;-75
2021/11/05 06:23:51;;;;;;;7.13;3.28;;;7.20;99.30;;;;;;5018096;28;20037;-74
2021/11/05 06:26:16;;;;;;;9.90;3.50;;;7.10;99.30;;;;;;5018029;28;20044;-75
2021/11/05 06:28:42;;;;;;;9.63;3.90;;;7.10;99.30;;;;;;5019500;28;20064;-75
2021/11/05 06:31:08;;;;;;;13.07;3.35;;;7.10;99.30;;;;;;5019370;28;20386;-75
2021/11/05 06:33:34;;;;;;;6.30;3.20;;;7.00;99.30;;;;;;5017690;28;20050;-74
2021/11/05 06:35:59;;;;;;;8.15;3.33;;;7.00;99.30;;;;;;5017965;28;20024;-74
2021/11/05 06:38:25;;;;;;;7.03;2.83;;;6.90;99.30;;;;;;5019423;28;20141;-74
2021/11/05 06:40:51;;;;;;;5.45;2.72;;;6.90;99.40;;;;;;5018058;28;20382;-74
2021/11/05 06:43:18;;;;;;;4.95;2.92;;;6.90;99.30;;;;;;5019560;28;20022;-75
2021/11/05 06:45:44;;;;;;;6.85;3.03;;;6.90;99.30;;;;;;5019231;28;20097;-75
2021/11/05 06:48:11;;;;;;;5.63;3.00;;;6.90;99.30;;;;;;5017904;28;20022;-75
2021/11/05 06:50:38;;;;;;;5.10;2.75;;;6.90;99.20;;;;;;5018213;28;20028;-75
2021/11/05 06:53:03;;;;;;;8.52;2.58;;;6.90;99.20;;;;;;5019237;28;20040;-76
2021/11/05 06:55:29;;;;;;;5.78;2.88;;;6.90;99.20;;;;;;5018093;28;20025;-76
2021/11/05 06:57:55;;;;;;;15.70;3.47;;;7.00;99.20;;;;;;5019251;28;20458;-76
2021/11/05 07:00:21;;;;;;;4.68;2.88;;;6.90;99.10;;;;;;5017787;28;20090;-76
2021/11/05 07:02:47;;;;;;;7.63;2.80;;;6.90;99.20;;;;;;5018864;28;20438;-76
2021/11/05 07:05:15;;;;;;;3.85;2.47;;;6.90;99.10;;;;;;5018787;28;20030;-75
2021/11/05 07:07:42;;;;;;;5.82;3.13;;;7.00;99.10;;;;;;5017801;28;20037;-76
2021/11/05 07:10:09;;;;;;;5.82;2.92;;;7.00;99.10;;;;;;5019037;28;20061;-75
2021/11/05 07:12:36;;;;;;;4.47;2.63;;;7.00;99.00;;;;;;5015458;28;20022;-74
2021/11/05 07:15:03;;;;;;;12.10;2.92;;;7.00;99.00;;;;;;5015531;28;20034;-75
2021/11/05 07:17:29;;;;;;;4.47;2.63;;;7.00;99.00;;;;;;5014571;28;20117;-74
2021/11/05 07:19:54;;;;;;;9.43;2.88;;;7.10;99.00;;;;;;5016142;28;20057;-74
2021/11/05 07:22:20;;;;;;;4.47;2.83;;;7.00;98.90;;;;;;5014479;28;20446;-74
2021/11/05 07:24:46;;;;;;;5.43;2.65;;;7.00;98.90;;;;;;5014459;28;20108;-74
2021/11/05 07:27:12;;;;;;;4.70;3.22;;;7.10;98.90;;;;;;5014557;28;20051;-74
2021/11/05 07:29:38;;;;;;;7.53;3.00;;;7.00;98.90;;;;;;5015718;28;20026;-75
2021/11/05 07:32:08;;;;;;;7.55;3.33;;;7.10;98.90;;;;;;5014084;28;20030;-75
2021/11/05 07:34:34;;;;;;;5.55;3.20;;;7.10;98.90;;;;;;5015264;28;20080;-74
2021/11/05 07:37:02;;;;;;;6.53;3.42;;;7.10;98.90;;;;;;5015234;28;20530;-75
2021/11/05 07:39:29;;;;;;;8.18;2.92;;;7.20;98.90;;;;;;5014258;28;20026;-75
2021/11/05 07:41:55;;;;;;;9.02;3.08;;;7.20;98.80;;;;;;5015652;28;20022;-75
2021/11/05 07:44:21;;;;;;;16.80;3.65;;;7.20;98.80;;;;;;5015805;28;20022;-73
2021/11/05 07:46:47;;;;;;;7.88;3.50;;;7.20;98.70;;;;;;5014790;28;20026;-74
2021/11/05 07:49:15;;;;;;;5.63;2.88;;;7.30;98.80;;;;;;5015290;28;20037;-75
2021/11/05 07:51:41;;;;;;;9.50;2.97;;;7.30;98.70;;;;;;5014885;28;20113;-75
2021/11/05 07:54:07;;;;;;;9.30;3.40;;;7.30;98.70;;;;;;5014145;28;20109;-75
2021/11/05 07:56:36;;;;;;;5.28;3.10;;;7.30;98.70;;;;;;5013977;28;20582;-75
2021/11/05 07:59:04;;;;;;;4.82;2.83;;;7.40;98.70;;;;;;5013852;28;20030;-75
2021/11/05 08:01:30;;;;;;;6.07;2.90;;;7.40;98.90;;;;;;5013607;28;20105;-74
2021/11/05 08:03:56;;;;;;;6.20;2.97;;;7.40;98.60;;;;;;5013447;28;20109;-75
2021/11/05 08:06:21;;;;;;;6.30;3.05;;;7.50;98.60;;;;;;5013469;28;20486;-75
2021/11/05 08:08:47;;;;;;;6.78;3.55;;;7.50;98.60;;;;;;5013661;28;20026;-74
2021/11/05 08:11:13;;;;;;;7.47;3.00;;;7.50;98.70;;;;;;5014897;28;20030;-74
2021/11/05 08:13:39;;;;;;;4.45;2.92;;;7.50;98.70;;;;;;5013728;28;20065;-75
2021/11/05 08:16:05;;;;;;;8.15;3.13;;;7.50;98.70;;;;;;5013584;28;20033;-75
2021/11/05 08:18:31;;;;;;;6.18;3.38;;;7.60;98.70;;;;;;5014185;28;20029;-75
2021/11/05 08:20:57;;;;;;;6.82;3.65;;;7.60;98.70;;;;;;5014438;28;20022;-75
2021/11/05 08:23:23;;;;;;;5.95;3.25;;;7.60;98.60;;;;;;5014149;28;20030;-75
2021/11/05 08:25:49;;;;;;;6.78;3.20;;;7.60;98.70;;;;;;5013439;28;20026;-75
2021/11/05 08:28:16;;;;;;;8.85;3.53;;;7.60;98.70;;;;;;5014322;28;20033;-75
2021/11/05 08:30:43;;;;;;;4.88;3.25;;;7.60;98.70;;;;;;5013473;28;20116;-75
2021/11/05 08:33:09;;;;;;;5.82;3.20;;;7.60;98.80;;;;;;5013051;28;20050;-76
2021/11/05 08:35:36;;;;;;;9.45;3.58;;;7.60;98.80;;;;;;5014555;28;20026;-75
2021/11/05 08:38:04;;;;;;;7.38;3.70;;;7.60;98.80;;;;;;5014505;28;20026;-75
2021/11/05 08:40:30;;;;;;;6.30;3.80;;;7.70;98.90;;;;;;5014249;28;20455;-75
2021/11/05 08:42:56;;;;;;;6.47;4.20;;;7.70;98.80;;;;;;5013973;28;20390;-75
2021/11/05 08:45:22;;;;;;;6.18;4.53;;;7.70;98.80;;;;;;5012932;28;20029;-75
2021/11/05 08:47:48;;;;;;;7.28;3.75;;;7.70;98.80;;;;;;5012867;28;20018;-75
2021/11/05 08:50:18;;;;;;;6.93;4.35;;;7.80;98.90;;;;;;5014223;28;20030;-75
2021/11/05 08:52:44;;;;;;;7.20;4.30;;;7.80;98.80;;;;;;5014796;28;20116;-75
2021/11/05 08:55:11;;;;;;;7.80;3.75;;;7.90;98.90;;;;;;5012739;28;20026;-75
2021/11/05 08:57:37;;;;;;;7.38;4.60;;;8.00;98.80;;;;;;5014076;28;20057;-74
2021/11/05 09:00:10;;;;;;;7.40;4.93;;;8.10;98.70;;;;;;5012752;28;20096;-74
2021/11/05 09:02:35;;;;;;;5.85;3.85;;;8.20;98.50;;;;;;5014294;28;20040;-74
2021/11/05 09:05:03;;;;;;;6.82;4.07;;;8.20;98.50;;;;;;5013384;28;20018;-74
2021/11/05 09:07:28;;;;;;;7.57;4.72;;;8.20;98.50;;;;;;5012695;28;20416;-74
2021/11/05 09:09:55;;;;;;;8.02;4.38;;;8.20;98.60;;;;;;5012447;28;20021;-74
2021/11/05 09:12:20;;;;;;;6.63;4.32;;;8.20;98.70;;;;;;5013706;28;20049;-74
2021/11/05 09:14:46;;;;;;;6.20;4.43;;;8.20;98.80;;;;;;5013793;28;20026;-74
2021/11/05 09:17:12;;;;;;;7.15;3.85;;;8.20;98.80;;;;;;5012636;28;20018;-74
2021/11/05 09:19:38;;;;;;;7.60;4.43;;;8.30;98.90;;;;;;5012120;28;20393;-74
2021/11/05 09:22:04;;;;;;;6.57;3.80;;;8.30;98.90;;;;;;5012222;28;20064;-74
2021/11/05 09:24:30;;;;;;;9.95;3.58;;;8.30;98.80;;;;;;5013198;28;20054;-74
2021/11/05 09:26:55;;;;;;;4.65;3.15;;;8.40;98.90;;;;;;5013235;28;20487;-74
2021/11/05 09:29:21;;;;;;;5.43;3.67;;;8.40;98.90;;;;;;5012149;28;20026;-75
2021/11/05 09:31:47;;;;;;;7.00;3.80;;;8.50;99.20;;;;;;5013379;28;20405;-74
2021/11/05 09:34:12;;;;;;;6.47;3.78;;;8.50;98.90;;;;;;5012890;28;20068;-75
2021/11/05 09:36:38;;;;;;;5.30;3.55;;;8.50;98.90;;;;;;5013697;28;20018;-74
2021/11/05 09:39:04;;;;;;;7.93;3.67;;;8.60;98.90;;;;;;5012088;28;20018;-74
2021/11/05 09:41:30;;;;;;;4.80;3.45;;;8.60;98.90;;;;;;5011894;28;20108;-75
2021/11/05 09:43:56;;;;;;;10.70;3.85;;;8.70;98.90;;;;;;5011990;28;20113;-74
2021/11/05 09:46:22;;;;;;;6.47;3.83;;;8.80;98.90;;;;;;5013261;28;20105;-73
2021/11/05 09:48:49;;;;;;;5.45;3.58;;;8.90;98.80;;;;;;5012082;28;20117;-75
2021/11/05 09:51:15;;;;;;;8.07;3.60;;;9.10;98.70;;;;;;5012879;28;20022;-76
2021/11/05 09:53:41;;;;;;;6.15;3.88;;;9.30;98.50;;;;;;5011915;28;20038;-75
2021/11/05 09:56:10;;;;;;;5.28;3.53;;;9.50;98.40;;;;;;5013167;28;20022;-74
2021/11/05 09:58:42;;;;;;;9.25;3.47;;;9.60;98.30;;;;;;5011933;28;20128;-74
2021/11/05 10:01:09;;;;;;;9.35;4.07;;;9.70;98.20;;;;;;5013156;28;20124;-74
2021/11/05 10:03:36;;;;;;;5.25;3.72;;;9.80;98.20;;;;;;5011667;28;20052;-74
2021/11/05 10:06:05;;;;;;;6.90;4.10;;;9.80;98.20;;;;;;5013404;28;20030;-74
2021/11/05 10:08:36;;;;;;;7.80;3.78;;;9.90;98.10;;;;;;5011859;28;20022;-75
2021/11/05 10:11:36;;;;;;;5.20;3.72;;;9.90;98.10;;;;;;5013122;28;20030;-75
2021/11/05 10:14:03;;;;;;;11.00;4.70;;;10.00;98.00;;;;;;5013001;28;20109;-75
2021/11/05 10:16:31;;;;;;;6.47;3.63;;;10.10;98.30;;;;;;5013484;28;20018;-75
2021/11/05 10:19:08;;;;;;;8.45;3.90;;;10.10;98.10;;;;;;5013045;28;20041;-75
2021/11/05 10:21:45;;;;;;;5.20;3.75;;;10.10;98.20;;;;;;5012830;28;20084;-75
2021/11/05 10:24:14;;;;;;;5.80;3.95;;;10.10;98.30;;;;;;5013175;28;20026;-76
2021/11/05 10:26:41;;;;;;;8.68;3.53;;;10.10;98.30;;;;;;5012941;28;20105;-75
2021/11/05 10:29:08;;;;;;;7.10;3.13;;;10.20;98.30;;;;;;5012939;28;20113;-75
2021/11/05 10:31:35;;;;;;;6.57;3.40;;;10.20;98.30;;;;;;5013134;28;20115;-76
2021/11/05 10:34:02;;;;;;;4.93;3.13;;;10.30;98.30;;;;;;5013314;28;20188;-76
2021/11/05 10:36:30;;;;;;;6.53;4.32;;;10.40;98.30;;;;;;5011647;28;20033;-76
2021/11/05 10:38:59;;;;;;;6.85;3.33;;;10.50;98.30;;;;;;5011789;28;20034;-76
2021/11/05 10:41:27;;;;;;;5.53;3.63;;;10.60;98.30;;;;;;5012445;28;20385;-76
2021/11/05 10:43:59;;;;;;;4.97;3.47;;;10.80;98.20;;;;;;5011696;28;20458;-76
2021/11/05 10:46:39;;;;;;;4.65;3.70;;;10.90;98.20;;;;;;5014263;28;20030;-76
2021/11/05 10:49:19;;;;;;;7.93;3.88;;;11.10;98.30;;;;;;5015828;28;20462;-76
2021/11/05 10:51:46;;;;;;;6.55;3.00;;;11.30;98.20;;;;;;5016177;28;20030;-76
2021/11/05 10:54:12;;;;;;;4.22;2.70;;;11.40;98.10;;;;;;5016468;28;20088;-76
2021/11/05 10:56:38;;;;;;;4.13;2.55;;;11.60;98.00;;;;;;5016593;28;20026;-76
2021/11/05 10:59:10;;;;;;;5.30;2.50;;;11.80;97.90;;;;;;5016315;28;20105;-76
2021/11/05 11:01:38;;;;;;;12.18;2.47;;;12.00;97.90;;;;;;5016461;28;20022;-76
2021/11/05 11:04:06;;;;;;;3.90;2.30;;;12.20;97.70;;;;;;5015994;28;20025;-76
2021/11/05 11:06:42;;;;;;;6.07;2.03;;;12.30;97.60;;;;;;5016402;28;20048;-76
2021/11/05 11:09:10;;;;;;;5.57;2.53;;;12.50;97.50;;;;;;5015184;28;20022;-76
2021/11/05 11:11:39;;;;;;;4.90;2.53;;;12.70;97.40;;;;;;5015784;28;20050;-76
2021/11/05 11:14:16;;;;;;;6.03;2.40;;;12.80;97.20;;;;;;5014997;28;20014;-76
2021/11/05 11:16:48;;;;;;;3.15;2.08;;;13.00;97.10;;;;;;5014943;28;20025;-76
2021/11/05 11:19:22;;;;;;;7.78;2.42;;;13.20;96.90;;;;;;5016579;28;20022;-76
2021/11/05 11:21:47;;;;;;;3.95;2.08;;;13.30;96.70;;;;;;5014920;28;20056;-77
2021/11/05 11:24:17;;;;;;;3.30;1.92;;;13.20;96.60;;;;;;5015219;28;20369;-76
2021/11/05 11:26:45;;;;;;;3.65;1.77;;;13.10;96.60;;;;;;5015609;28;20060;-75
2021/11/05 11:29:13;;;;;;;3.10;1.60;;;13.00;96.60;;;;;;5016001;28;20049;-74
2021/11/05 11:31:41;;;;;;;4.57;2.35;;;12.90;96.70;;;;;;5015573;28;20083;-75
2021/11/05 11:34:08;;;;;;;4.75;2.00;;;12.90;96.70;;;;;;5014045;28;20045;-75
2021/11/05 11:36:40;;;;;;;9.25;1.63;;;12.80;96.80;;;;;;5014919;28;20029;-75
2021/11/05 11:39:10;;;;;;;4.00;1.42;;;12.80;96.80;;;;;;5015508;28;20188;-75
2021/11/05 11:41:37;;;;;;;4.88;1.35;;;12.80;96.80;;;;;;5013783;28;20033;-75
2021/11/05 11:44:04;;;;;;;4.45;1.50;;;12.80;96.80;;;;;;5015780;28;20030;-76
2021/11/05 11:46:55;;;;;;;4.78;1.65;;;12.80;96.80;;;;;;5015712;28;20018;-75
2021/11/05 11:49:39;;;;;;;2.60;1.27;;;12.80;96.70;;;;;;5015876;28;20125;-75
2021/11/05 11:52:18;;;;;;;5.00;1.20;;;12.70;96.60;;;;;;5014044;28;20044;-75
2021/11/05 11:54:51;;;;;;;1.42;0.95;;;12.70;96.70;;;;;;5014125;28;20034;-75
2021/11/05 11:57:26;;;;;;;2.90;1.27;;;12.60;96.70;;;;;;5014941;28;20037;-75
2021/11/05 12:00:07;;;;;;;5.03;0.75;;;12.50;96.70;;;;;;5014849;28;20462;-75
2021/11/05 12:02:33;;;;;;;2.55;0.98;;;12.40;96.60;;;;;;5013710;28;20033;-75
2021/11/05 12:05:00;;;;;;;6.15;0.93;;;12.40;96.80;;;;;;5013693;28;20030;-75
2021/11/05 12:07:26;;;;;;;0.82;0.60;;;12.40;96.80;;;;;;5015247;28;20106;-75
2021/11/05 12:09:52;;;;;;;8.07;1.10;;;12.30;96.80;;;;;;5014967;28;20045;-75
2021/11/05 12:12:24;;;;;;;1.25;0.52;;;12.30;96.80;;;;;;5014499;28;20030;-75
2021/11/05 12:14:59;;;;;;;2.95;1.08;;;12.30;96.70;;;;;;5013554;28;20037;-75
2021/11/05 12:17:45;;;;;;;2.88;1.05;;;12.40;96.90;;;;;;5013472;28;20030;-75
2021/11/05 12:20:37;;;;;;;2.72;0.93;;;12.40;96.50;;;;;;5006611;28;20083;-76
2021/11/05 12:23:08;;;;;;;;;;;12.50;96.40;;;;;;5014649;28;20034;-75
2021/11/05 12:25:44;;;;;;;3.97;0.93;;;12.50;96.40;;;;;;5013615;28;19909;-75
2021/11/05 12:28:26;;;;;;;3.65;1.00;;;12.60;96.60;;;;;;5013492;28;20034;-76
2021/11/05 12:30:55;;;;;;;4.78;1.38;;;12.60;96.20;;;;;;5013318;28;20124;-75
2021/11/05 12:33:33;;;;;;;2.65;1.20;;;12.60;96.10;;;;;;5012857;28;20041;-75
2021/11/05 12:36:04;;;;;;;2.22;0.90;;;12.60;96.10;;;;;;5014461;28;20017;-75
2021/11/05 12:38:31;;;;;;;3.90;1.13;;;12.70;96.10;;;;;;5013331;28;20064;-74
2021/11/05 12:41:02;;;;;;;2.97;0.93;;;12.70;96.10;;;;;;5013246;28;20140;-75
2021/11/05 12:43:28;;;;;;;3.30;0.70;;;12.70;96.00;;;;;;5013747;28;20022;-75
2021/11/05 12:46:24;;;;;;;5.10;1.00;;;12.70;96.00;;;;;;5014692;28;20033;-75
2021/11/05 12:48:55;;;;;;;3.05;0.90;;;12.70;95.90;;;;;;5000500;28;20082;-75
2021/11/05 12:51:27;;;;;;;1.95;0.77;;;12.70;95.90;;;;;;5013147;28;20379;-75
2021/11/05 12:53:58;;;;;;;2.33;0.80;;;12.70;96.00;;;;;;5012721;28;20048;-75
2021/11/05 12:56:24;;;;;;;2.87;0.70;;;12.60;96.00;;;;;;5014191;28;20113;-75